createdAt,value
2023-01-02T00:01:29.672Z,23.05
2023-01-02T00:04:32.994Z,21.92
2023-01-02T00:07:36.041Z,22.87
2023-01-02T00:10:39.362Z,22.35
2023-01-02T00:13:42.613Z,23.05
2023-01-02T00:16:45.798Z,23.45
2023-01-02T00:19:48.837Z,24.40
2023-01-02T00:22:52.348Z,24.70
2023-01-02T00:25:55.309Z,23.27
2023-01-02T00:28:58.894Z,23.20
2023-01-02T00:32:01.856Z,24.02
2023-01-02T00:35:05.989Z,23.55
2023-01-02T00:38:10.399Z,24.02
2023-01-02T00:41:13.852Z,25.00
2023-01-02T00:44:16.903Z,24.25
2023-01-02T00:47:21.715Z,23.15
2023-01-02T00:50:24.825Z,23.15
2023-01-02T00:53:28.306Z,22.87
2023-01-02T00:56:31.275Z,22.37
2023-01-02T00:59:34.539Z,23.08
2023-01-02T01:02:37.698Z,23.25
2023-01-02T01:05:41.509Z,22.05
2023-01-02T01:08:44.704Z,22.05
2023-01-02T01:11:48.165Z,22.92
2023-01-02T01:14:51.906Z,23.85
2023-01-02T01:17:56.842Z,23.15
2023-01-02T01:20:59.846Z,22.93
2023-01-02T01:24:04.803Z,22.07
2023-01-02T01:27:07.849Z,22.45
2023-01-02T01:30:12.175Z,22.60
2023-01-02T01:33:15.131Z,21.77
2023-01-02T01:36:21.416Z,20.30
2023-01-02T01:39:24.716Z,21.17
2023-01-02T01:42:34.976Z,20.00
2023-01-02T01:45:42.265Z,21.92
2023-01-02T01:48:46.635Z,22.25
2023-01-02T01:51:52.547Z,21.65
2023-01-02T01:55:08.587Z,22.35
2023-01-02T01:58:15.975Z,20.85
2023-01-02T02:01:19.454Z,22.13
2023-01-02T02:04:25.135Z,20.85
2023-01-02T02:07:28.607Z,21.37
2023-01-02T02:10:32.697Z,21.67
2023-01-02T02:13:36.140Z,22.17
2023-01-02T02:16:47.058Z,21.10
2023-01-02T02:19:50.348Z,21.33
2023-01-02T02:23:41.105Z,19.25
2023-01-02T02:27:00.553Z,21.50
2023-01-02T02:30:18.130Z,20.12
2023-01-02T02:33:49.440Z,21.60
2023-01-02T02:37:10.208Z,20.88
2023-01-02T02:40:27.178Z,21.62
2023-01-02T02:43:42.063Z,21.02
2023-01-02T02:47:09.343Z,21.42
2023-01-02T02:50:17.379Z,20.95
2023-01-02T02:53:24.107Z,19.67
2023-01-02T02:56:27.965Z,20.58
2023-01-02T02:59:34.017Z,19.55
2023-01-02T03:02:38.163Z,21.83
2023-01-02T03:05:43.142Z,20.57
2023-01-02T03:09:24.879Z,20.45
2023-01-02T03:12:40.931Z,21.08
2023-01-02T03:16:08.648Z,19.15
2023-01-02T03:19:15.409Z,20.10
2023-01-02T03:22:22.555Z,20.08
2023-01-02T03:25:26.929Z,20.85
2023-01-02T03:28:33.213Z,19.37
2023-01-02T03:31:40.048Z,20.20
2023-01-02T03:34:43.944Z,18.52
2023-01-02T03:37:50.507Z,19.57
2023-01-02T03:41:03.920Z,19.35
2023-01-02T03:44:08.088Z,19.80
2023-01-02T03:47:23.746Z,19.83
2023-01-02T03:50:56.614Z,19.15
2023-01-02T03:54:00.337Z,16.90
2023-01-02T03:57:09.528Z,17.17
2023-01-02T04:00:14.846Z,18.10
2023-01-02T04:03:22.416Z,18.08
2023-01-02T04:06:33.927Z,17.87
2023-01-02T04:09:39.511Z,16.77
2023-01-02T04:15:47.798Z,17.27
2023-01-02T04:18:59.319Z,18.65
2023-01-02T04:22:07.135Z,18.10
2023-01-02T04:25:16.476Z,18.05
2023-01-02T04:28:28.479Z,18.10
2023-01-02T04:31:41.412Z,18.58
2023-01-02T04:34:45.977Z,18.17
2023-01-02T04:37:49.601Z,17.33
2023-01-02T04:40:52.969Z,18.23
2023-01-02T04:43:56.942Z,19.10
2023-01-02T04:47:00.320Z,18.47
2023-01-02T04:50:05.144Z,17.40
2023-01-02T04:56:13.506Z,16.25
2023-01-02T04:59:16.956Z,16.60
2023-01-02T05:02:20.355Z,17.90
2023-01-02T05:05:23.827Z,19.48
2023-01-02T05:08:28.449Z,18.33
2023-01-02T05:11:32.498Z,17.48
2023-01-02T05:14:35.454Z,18.20
2023-01-02T05:17:43.368Z,16.75
2023-01-02T05:20:46.331Z,15.60
2023-01-02T05:23:50.740Z,18.23
2023-01-02T05:26:54.991Z,17.27
2023-01-02T05:29:58.322Z,16.80
2023-01-02T05:33:01.415Z,16.58
2023-01-02T05:36:06.989Z,16.90
2023-01-02T05:42:15.514Z,15.05
2023-01-02T05:45:18.499Z,18.48
2023-01-02T05:48:21.752Z,17.30
2023-01-02T05:51:24.765Z,18.67
2023-01-02T05:54:28.016Z,16.15
2023-01-02T05:57:30.984Z,16.20
2023-01-02T06:00:34.920Z,16.40
2023-01-02T06:03:38.453Z,15.60
2023-01-02T06:06:42.634Z,16.50
2023-01-02T06:09:46.125Z,17.10
2023-01-02T06:12:49.652Z,16.25
2023-01-02T06:15:55.155Z,15.57
2023-01-02T06:22:01.653Z,15.20
2023-01-02T06:25:05.010Z,15.25
2023-01-02T06:28:08.378Z,15.45
2023-01-02T06:31:17.557Z,16.05
2023-01-02T06:34:20.981Z,16.27
2023-01-02T06:37:23.910Z,15.45
2023-01-02T06:40:27.189Z,16.60
2023-01-02T06:43:31.402Z,17.20
2023-01-02T06:46:34.752Z,14.93
2023-01-02T06:49:37.807Z,15.27
2023-01-02T06:52:41.256Z,15.23
2023-01-02T06:55:58.040Z,15.23
2023-01-02T06:59:01.466Z,15.82
2023-01-02T07:02:04.595Z,16.17
2023-01-02T07:05:08.282Z,15.95
2023-01-02T07:08:12.214Z,17.67
2023-01-02T07:11:21.086Z,17.98
2023-01-02T07:14:24.843Z,17.80
2023-01-02T07:17:28.743Z,17.48
2023-01-02T07:20:31.890Z,16.77
2023-01-02T07:23:35.737Z,17.30
2023-01-02T07:26:38.717Z,16.50
2023-01-02T07:29:43.413Z,18.20
2023-01-02T07:32:46.389Z,16.87
2023-01-02T07:35:51.392Z,17.08
2023-01-02T07:38:56.169Z,17.33
2023-01-02T07:41:59.870Z,17.23
2023-01-02T07:45:02.987Z,17.70
2023-01-02T07:48:06.499Z,17.05
2023-01-02T07:51:11.208Z,18.50
2023-01-02T07:54:14.722Z,17.13
2023-01-02T07:57:17.662Z,15.95
2023-01-02T08:00:21.089Z,15.65
2023-01-02T08:03:39.054Z,14.35
2023-01-02T08:06:42.212Z,15.02
2023-01-02T08:09:45.948Z,27.20
2023-01-02T08:12:48.933Z,15.45
2023-01-02T08:15:52.261Z,17.00
2023-01-02T08:18:56.943Z,13.77
2023-01-02T08:22:00.301Z,18.35
2023-01-02T08:25:07.810Z,21.00
2023-01-02T08:28:11.329Z,22.27
2023-01-02T08:31:17.228Z,20.20
2023-01-02T08:34:22.866Z,19.48
2023-01-02T08:37:26.388Z,17.60
2023-01-02T08:40:29.746Z,18.20
2023-01-02T08:43:34.950Z,18.48
2023-01-02T08:46:42.553Z,19.50
2023-01-02T08:49:45.914Z,17.90
2023-01-02T08:52:49.387Z,18.33
2023-01-02T08:55:52.441Z,17.20
2023-01-02T08:59:09.714Z,17.85
2023-01-02T09:02:15.806Z,19.45
2023-01-02T09:05:19.109Z,13.73
2023-01-02T09:08:22.632Z,13.62
2023-01-02T09:11:35.425Z,14.60
2023-01-02T09:14:38.585Z,14.82
2023-01-02T09:17:41.914Z,13.85
2023-01-02T09:20:45.273Z,13.70
2023-01-02T09:23:49.448Z,14.18
2023-01-02T09:26:53.561Z,16.40
2023-01-02T09:29:57.482Z,16.87
2023-01-02T09:33:00.961Z,15.82
2023-01-02T09:36:05.969Z,17.10
2023-01-02T09:39:09.125Z,18.62
2023-01-02T09:42:15.441Z,18.33
2023-01-02T09:45:18.987Z,16.37
2023-01-02T09:48:23.747Z,14.70
2023-01-02T09:51:27.287Z,14.87
2023-01-02T09:54:32.683Z,16.05
2023-01-02T09:58:10.885Z,16.00
2023-01-02T10:01:20.493Z,16.90
2023-01-02T10:04:39.381Z,16.45
2023-01-02T10:07:49.375Z,16.60
2023-01-02T10:11:02.896Z,17.92
2023-01-02T10:14:32.171Z,16.73
2023-01-02T10:17:45.131Z,15.98
2023-01-02T10:21:13.190Z,15.30
2023-01-02T10:24:25.700Z,17.67
2023-01-02T10:27:42.715Z,15.73
2023-01-02T10:30:53.031Z,16.27
2023-01-02T10:34:02.594Z,14.38
2023-01-02T10:37:16.082Z,14.40
2023-01-02T10:40:19.292Z,13.65
2023-01-02T10:43:22.583Z,13.65
2023-01-02T10:46:32.502Z,13.50
2023-01-02T10:49:37.983Z,11.85
2023-01-02T10:52:47.728Z,12.25
2023-01-02T10:55:50.966Z,11.55
2023-01-02T10:58:53.970Z,10.70
2023-01-02T11:01:59.417Z,10.25
2023-01-02T11:08:12.745Z,8.80
2023-01-02T11:11:17.723Z,9.48
2023-01-02T11:14:28.917Z,8.80
2023-01-02T11:17:43.511Z,6.95
2023-01-02T11:20:53.666Z,7.03
2023-01-02T11:24:04.869Z,8.73
2023-01-02T11:27:10.076Z,7.30
2023-01-02T11:33:34.918Z,6.75
2023-01-02T11:36:44.525Z,7.35
2023-01-02T11:40:28.332Z,7.75
2023-01-02T11:43:49.328Z,7.65
2023-01-02T11:46:53.988Z,7.10
2023-01-02T11:49:57.200Z,10.75
2023-01-02T11:53:13.379Z,9.37
2023-01-02T11:56:22.782Z,10.63
2023-01-02T11:59:36.692Z,12.75
2023-01-02T12:02:43.031Z,9.40
2023-01-02T12:06:11.163Z,7.40
2023-01-02T12:09:24.250Z,7.50
2023-01-02T12:12:55.574Z,8.95
2023-01-02T12:16:26.737Z,8.38
2023-01-02T12:20:03.384Z,8.82
2023-01-02T12:23:37.195Z,10.20
2023-01-02T12:27:08.483Z,9.85
2023-01-02T12:30:21.392Z,10.00
2023-01-02T12:33:39.328Z,11.10
2023-01-02T12:37:06.456Z,10.20
2023-01-02T12:40:47.316Z,9.70
2023-01-02T12:44:33.414Z,11.05
2023-01-02T12:47:43.709Z,10.63
2023-01-02T12:51:18.246Z,11.68
2023-01-02T12:54:43.810Z,13.52
2023-01-02T12:58:00.118Z,12.07
2023-01-02T13:01:06.673Z,13.35
2023-01-02T13:04:19.403Z,15.55
2023-01-02T13:07:42.596Z,17.87
2023-01-02T13:10:47.729Z,18.08
2023-01-02T13:13:51.932Z,17.43
2023-01-02T13:17:06.290Z,17.10
2023-01-02T13:20:28.149Z,17.65
2023-01-02T13:23:41.207Z,22.33
2023-01-02T13:26:45.307Z,19.40
2023-01-02T13:29:49.060Z,18.25
2023-01-02T13:32:52.573Z,16.43
2023-01-02T13:35:56.085Z,18.15
2023-01-02T13:39:05.703Z,17.98
2023-01-02T13:42:29.692Z,18.10
2023-01-02T13:45:40.178Z,16.00
2023-01-02T13:48:47.119Z,16.40
2023-01-02T13:52:00.157Z,14.90
2023-01-02T13:55:28.773Z,14.23
2023-01-02T13:58:44.771Z,13.95
2023-01-02T14:02:01.219Z,13.38
2023-01-02T14:05:42.435Z,14.38
2023-01-02T14:09:18.584Z,14.15
2023-01-02T14:12:22.078Z,14.07
2023-01-02T14:15:27.118Z,13.85
2023-01-02T14:18:31.002Z,14.32
2023-01-02T14:21:42.215Z,15.18
2023-01-02T14:24:50.059Z,16.35
2023-01-02T14:28:00.131Z,14.65
2023-01-02T14:31:18.320Z,14.82
2023-01-02T14:34:24.567Z,14.15
2023-01-02T14:37:28.226Z,14.63
2023-01-02T14:40:33.003Z,15.18
2023-01-02T14:46:39.792Z,16.98
2023-01-02T14:49:44.634Z,16.58
2023-01-02T14:52:53.107Z,18.37
2023-01-02T14:56:02.284Z,18.67
2023-01-02T14:59:06.235Z,15.65
2023-01-02T15:02:16.386Z,16.63
2023-01-02T15:05:48.040Z,16.50
2023-01-02T15:08:52.985Z,13.98
2023-01-02T15:12:17.898Z,14.20
2023-01-02T15:15:30.744Z,14.10
2023-01-02T15:18:35.577Z,14.35
2023-01-02T15:24:52.198Z,15.50
2023-01-02T15:27:56.743Z,16.45
2023-01-02T15:31:05.376Z,15.45
2023-01-02T15:34:10.202Z,14.63
2023-01-02T15:37:14.411Z,14.75
2023-01-02T15:40:21.485Z,14.57
2023-01-02T15:43:44.529Z,13.98
2023-01-02T15:46:48.356Z,14.87
2023-01-02T15:49:51.676Z,15.23
2023-01-02T15:53:09.968Z,15.20
2023-01-02T15:56:37.315Z,14.68
2023-01-02T15:59:40.894Z,15.88
2023-01-02T16:02:45.032Z,15.23
2023-01-02T16:05:52.334Z,14.43
2023-01-02T16:08:58.624Z,16.95
2023-01-02T16:12:03.488Z,15.77
2023-01-02T16:15:08.589Z,15.97
2023-01-02T16:21:20.505Z,15.65
2023-01-02T16:24:25.504Z,16.52
2023-01-02T16:27:31.033Z,17.05
2023-01-02T16:30:39.204Z,18.55
2023-01-02T16:33:46.073Z,18.27
2023-01-02T16:36:49.662Z,19.25
2023-01-02T16:39:52.927Z,18.15
2023-01-02T16:43:03.345Z,17.90
2023-01-02T16:46:10.281Z,18.23
2023-01-02T16:49:20.736Z,18.17
2023-01-02T16:52:24.079Z,17.45
2023-01-02T16:55:28.392Z,16.00
2023-01-02T16:58:31.349Z,16.05
2023-01-02T17:01:34.872Z,14.55
2023-01-02T17:04:38.039Z,15.00
2023-01-02T17:07:41.336Z,14.85
2023-01-02T17:10:44.704Z,14.95
2023-01-02T17:13:48.391Z,15.02
2023-01-02T17:16:51.574Z,15.00
2023-01-02T17:19:55.047Z,17.55
2023-01-02T17:22:58.199Z,16.85
2023-01-02T17:26:02.247Z,17.45
2023-01-02T17:29:07.779Z,18.70
2023-01-02T17:32:13.200Z,18.60
2023-01-02T17:35:16.840Z,16.92
2023-01-02T17:38:22.614Z,20.88
2023-01-02T17:41:25.977Z,21.20
2023-01-02T17:44:31.157Z,21.33
2023-01-02T17:50:58.410Z,22.35
2023-01-02T17:54:03.442Z,22.25
2023-01-02T17:57:07.540Z,22.87
2023-01-02T18:00:14.230Z,23.92
2023-01-02T18:03:18.482Z,21.12
2023-01-02T18:06:21.821Z,23.25
2023-01-02T18:09:26.505Z,23.92
2023-01-02T18:12:29.592Z,21.62
2023-01-02T18:15:35.921Z,22.35
2023-01-02T18:18:39.969Z,24.80
2023-01-02T18:21:45.101Z,25.90
2023-01-02T18:24:49.253Z,26.33
2023-01-02T18:28:00.033Z,20.90
2023-01-02T18:31:16.864Z,22.37
2023-01-02T18:34:47.077Z,25.92
2023-01-02T18:37:47.220Z,23.35
2023-01-02T18:40:53.447Z,23.50
2023-01-02T18:44:21.965Z,23.52
2023-01-02T18:47:35.769Z,23.17
2023-01-02T18:50:39.925Z,20.08
2023-01-02T18:53:54.012Z,22.45
2023-01-02T18:57:00.305Z,25.23
2023-01-02T19:00:28.018Z,26.85
2023-01-02T19:03:36.332Z,22.13
2023-01-02T19:06:44.622Z,22.48
2023-01-02T19:09:47.855Z,23.02
2023-01-02T19:13:08.096Z,22.50
2023-01-02T19:16:15.575Z,20.67
2023-01-02T19:19:25.634Z,20.52
2023-01-02T19:22:33.596Z,19.75
2023-01-02T19:25:37.357Z,21.05
2023-01-02T19:28:52.946Z,20.70
2023-01-02T19:32:27.188Z,20.23
2023-01-02T19:35:39.745Z,21.55
2023-01-02T19:38:43.863Z,20.67
2023-01-02T19:42:06.279Z,21.35
2023-01-02T19:45:16.161Z,23.15
2023-01-02T19:48:20.087Z,23.87
2023-01-02T19:51:25.009Z,25.40
2023-01-02T19:54:29.954Z,38.73
2023-01-02T19:57:35.539Z,32.50
2023-01-02T20:00:40.346Z,30.62
2023-01-02T20:03:47.193Z,39.00
2023-01-02T20:06:52.945Z,45.53
2023-01-02T20:09:57.765Z,33.22
2023-01-02T20:13:02.468Z,33.88
2023-01-02T20:16:08.601Z,26.42
2023-01-02T20:19:12.361Z,27.98
2023-01-02T20:22:16.438Z,22.33
2023-01-02T20:28:30.581Z,31.52
2023-01-02T20:31:36.396Z,22.27
2023-01-02T20:34:41.970Z,21.00
2023-01-02T20:37:49.061Z,21.58
2023-01-02T20:40:53.934Z,21.80
2023-01-02T20:43:58.851Z,21.42
2023-01-02T20:53:17.679Z,19.05
2023-01-02T20:56:22.199Z,35.28
2023-01-02T21:02:33.951Z,29.87
2023-01-02T21:05:40.238Z,33.47
2023-01-02T21:08:44.891Z,28.67
2023-01-02T21:11:49.964Z,30.42
2023-01-02T21:14:55.502Z,29.55
2023-01-02T21:18:01.250Z,22.90
2023-01-02T21:24:13.334Z,21.15
2023-01-02T21:27:20.419Z,21.83
2023-01-02T21:30:24.192Z,22.05
2023-01-02T21:33:29.780Z,22.00
2023-01-02T21:36:36.143Z,19.77
2023-01-02T21:39:40.520Z,18.80
2023-01-02T21:42:46.114Z,17.73
2023-01-02T21:45:49.257Z,18.83
2023-01-02T21:48:53.129Z,19.23
2023-01-02T21:51:58.089Z,21.12
2023-01-02T21:58:13.386Z,27.00
2023-01-02T22:01:17.629Z,25.35
2023-01-02T22:04:22.242Z,26.33
2023-01-02T22:10:42.687Z,24.02
2023-01-02T22:13:45.794Z,23.80
2023-01-02T22:16:49.829Z,21.30
2023-01-02T22:19:53.835Z,22.70
2023-01-02T22:22:57.167Z,18.55
2023-01-02T22:26:00.538Z,17.33
2023-01-02T22:29:07.969Z,18.08
2023-01-02T22:32:15.603Z,16.00
2023-01-02T22:38:22.761Z,24.05
2023-01-02T22:41:26.456Z,26.75
2023-01-02T22:44:30.088Z,38.50
2023-01-02T22:47:35.660Z,39.42
2023-01-02T22:50:43.324Z,35.25
2023-01-02T22:53:46.663Z,33.80
2023-01-02T22:56:50.524Z,34.58
2023-01-02T22:59:54.052Z,27.52
2023-01-02T23:02:57.352Z,26.23
2023-01-02T23:06:00.597Z,23.27
2023-01-02T23:09:03.622Z,21.52
2023-01-02T23:12:07.365Z,26.70
2023-01-02T23:15:14.474Z,39.53
2023-01-02T23:18:36.408Z,37.50
2023-01-02T23:21:40.331Z,27.52
2023-01-02T23:24:43.718Z,27.90
2023-01-02T23:27:47.039Z,31.70
2023-01-02T23:30:50.296Z,29.73
2023-01-02T23:33:53.243Z,23.75
2023-01-02T23:36:58.925Z,26.95
2023-01-02T23:40:01.898Z,24.17
2023-01-02T23:43:05.115Z,23.70
2023-01-02T23:46:08.079Z,21.45
2023-01-02T23:49:12.243Z,23.10
2023-01-02T23:52:15.414Z,21.67
2023-01-02T23:55:18.719Z,22.17
2023-01-02T23:58:23.511Z,21.20
